Bad Axe, MI

12:56 AM EST on February 12, 2016 (GMT -0500)
Thumb sunrise side | | Change Station
CLOSE
Current Station
Personal Weather Station
Location: Bad Axe, MI
Elevation: 758 ft
Nearby Weather Stations

Elev 758 ft 43.79 °N, 83.00 °W | Updated 3 minutes ago

Scattered Clouds
Scattered Clouds
11.5 °F
Feels Like 4 °F
N
4.2
Wind Variable Wind from WNW

Today
High -- | Low -- °F
--% Chance of Precip.
Yesterday
High -- | Low -- °F
Precip. -- in
Pressure 30.15 in
Visibility 10.0 miles
Clouds Scattered Clouds 3100 ft
Windchill 4 °F
Dew Point 5 °F
Humidity 76%
Rainfall 0.00 in
Snow Depth Not available.
7:35 AM 5:57 PM
Waxing Crescent, 17% visible
METAR KBAX 120534Z AUTO 27007KT 10SM SCT031 M10/M15 A3015 RMK AO2 T11021148
Pressure 30.15 in
Visibility 10.0 miles
Clouds Scattered Clouds 3100 ft
Windchill 4 °F
Dew Point 5 °F
Humidity 76%
Rainfall 0.00 in
Snow Depth Not available.
7:35 AM 5:57 PM
Waxing Crescent, 17% visible
METAR KBAX 120534Z AUTO 27007KT 10SM SCT031 M10/M15 A3015 RMK AO2 T11021148

10-Day Weather Forecast

Almanac

Astronomy

Feb. 12, 2016 Rise Set
Actual Time
Civil Twilight
Nautical Twilight
Astronomical Twilight
Moon
Length of Visible Light
Length of Day
Tomorrow will be .
, % of the Moon is Illuminated

Today's Extremes

State Highs State Lows

Community

WunderPhotos

Upload Photos

1,892,269 photos uploaded!

WunderBlog® & News

Nearby

Air Quality

  Air Quality AQ Index Pollutant
Not available.

Snow Depth

Station Depth Elevation

Earthquake Activity

City Distance Mag. Time & Date
Minimum magnitude displayed is 2.5.

Coastal Water Temperatures

Place Temperature

Stations

Nearby Weather Stations

Station Location Temp. Windchill Dew Point Humidity Wind Precip. Elev Updated Type
                   

Watches & Warnings

There are currently no watches in effect.